createdAt,value
2022-12-29T00:00:44.002Z,935.99
2022-12-29T00:01:44.688Z,935.99
2022-12-29T00:02:45.529Z,935.97
2022-12-29T00:03:45.760Z,935.94
2022-12-29T00:04:46.229Z,936.01
2022-12-29T00:05:46.626Z,935.86
2022-12-29T00:06:47.555Z,935.95
2022-12-29T00:07:48.185Z,935.87
2022-12-29T00:08:48.413Z,935.95
2022-12-29T00:09:49.051Z,935.9
2022-12-29T00:10:49.612Z,935.83
2022-12-29T00:11:50.157Z,935.82
2022-12-29T00:12:50.822Z,935.78
2022-12-29T00:13:51.334Z,935.76
2022-12-29T00:14:51.576Z,935.75
2022-12-29T00:15:52.126Z,935.8
2022-12-29T00:16:52.528Z,935.79
2022-12-29T00:17:52.905Z,935.74
2022-12-29T00:18:53.128Z,935.7
2022-12-29T00:19:53.374Z,935.71
2022-12-29T00:20:54.436Z,935.7
2022-12-29T00:21:55.198Z,935.76
2022-12-29T00:22:56.183Z,935.73
2022-12-29T00:23:56.401Z,935.66
2022-12-29T00:24:56.627Z,935.67
2022-12-29T00:25:57.663Z,935.6
2022-12-29T00:26:57.881Z,935.56
2022-12-29T00:28:03.180Z,935.57
2022-12-29T00:28:59.180Z,935.58
2022-12-29T00:29:59.413Z,935.55
2022-12-29T00:31:00.393Z,935.46
2022-12-29T00:32:00.578Z,935.55
2022-12-29T00:33:00.879Z,935.5
2022-12-29T00:34:01.651Z,935.57
2022-12-29T00:35:01.890Z,935.58
2022-12-29T00:36:02.173Z,935.65
2022-12-29T00:37:03.014Z,935.54
2022-12-29T00:38:03.333Z,935.58
2022-12-29T00:39:03.650Z,935.6
2022-12-29T00:40:04.147Z,935.6
2022-12-29T00:41:04.757Z,935.65
2022-12-29T00:42:05.663Z,935.64
2022-12-29T00:43:06.134Z,935.64
2022-12-29T00:44:06.925Z,935.56
2022-12-29T00:45:07.276Z,935.64
2022-12-29T00:46:07.604Z,935.63
2022-12-29T00:47:08.226Z,935.6
2022-12-29T00:48:08.761Z,935.58
2022-12-29T00:49:09.292Z,935.56
2022-12-29T00:50:09.926Z,935.55
2022-12-29T00:51:10.692Z,935.6
2022-12-29T00:52:10.939Z,935.62
2022-12-29T00:53:11.682Z,935.6
2022-12-29T00:54:12.371Z,935.63
2022-12-29T00:55:12.993Z,935.59
2022-12-29T00:56:13.775Z,935.61
2022-12-29T00:57:14.691Z,935.57
2022-12-29T00:58:15.624Z,935.59
2022-12-29T00:59:16.565Z,935.58
2022-12-29T01:00:17.218Z,935.56
2022-12-29T01:01:17.664Z,935.57
2022-12-29T01:02:18.620Z,935.54
2022-12-29T01:03:19.553Z,935.52
2022-12-29T01:04:19.586Z,935.52
2022-12-29T01:05:19.831Z,935.58
2022-12-29T01:06:20.540Z,935.55
2022-12-29T01:07:21.489Z,935.56
2022-12-29T01:08:22.204Z,935.57
2022-12-29T01:09:22.845Z,935.58
2022-12-29T01:10:23.059Z,935.51
2022-12-29T01:11:23.511Z,935.56
2022-12-29T01:12:23.708Z,935.57
2022-12-29T01:13:24.431Z,935.55
2022-12-29T01:14:24.667Z,935.6
2022-12-29T01:15:25.652Z,935.61
2022-12-29T01:16:26.198Z,935.63
2022-12-29T01:17:26.799Z,935.7
2022-12-29T01:18:27.339Z,935.61
2022-12-29T01:19:28.262Z,935.59
2022-12-29T01:20:28.742Z,935.62
2022-12-29T01:21:29.429Z,935.59
2022-12-29T01:22:29.679Z,935.58
2022-12-29T01:23:30.283Z,935.55
2022-12-29T01:24:30.613Z,935.57
2022-12-29T01:25:30.825Z,935.56
2022-12-29T01:26:31.038Z,935.61
2022-12-29T01:27:32.000Z,935.6
2022-12-29T01:28:32.633Z,935.58
2022-12-29T01:29:32.849Z,935.6
2022-12-29T01:30:33.503Z,935.62
2022-12-29T01:31:34.074Z,935.61
2022-12-29T01:32:34.826Z,935.61
2022-12-29T01:33:35.047Z,935.69
2022-12-29T01:34:35.293Z,935.69
2022-12-29T01:35:36.212Z,935.71
2022-12-29T01:36:37.137Z,935.74
2022-12-29T01:37:37.355Z,935.74
2022-12-29T01:38:37.662Z,935.74
2022-12-29T01:39:38.617Z,935.71
2022-12-29T01:40:39.550Z,935.71
2022-12-29T01:41:40.605Z,935.73
2022-12-29T01:42:41.120Z,935.68
2022-12-29T01:43:41.632Z,935.73
2022-12-29T01:44:42.637Z,935.71
2022-12-29T01:45:43.679Z,935.69
2022-12-29T01:46:44.592Z,935.64
2022-12-29T01:47:45.510Z,935.68
2022-12-29T01:48:45.746Z,935.66
2022-12-29T01:49:46.713Z,935.6
2022-12-29T01:50:47.377Z,935.6
2022-12-29T01:51:47.806Z,935.66
2022-12-29T01:52:48.360Z,935.61
2022-12-29T01:53:48.993Z,935.62
2022-12-29T01:54:49.206Z,935.63
2022-12-29T01:55:49.876Z,935.65
2022-12-29T01:56:50.740Z,935.62
2022-12-29T01:57:51.259Z,935.55
2022-12-29T01:58:51.470Z,935.63
2022-12-29T01:59:52.397Z,935.65
2022-12-29T02:00:53.107Z,935.69
2022-12-29T02:01:53.951Z,935.62
2022-12-29T02:02:53.990Z,935.63
2022-12-29T02:03:54.314Z,935.58
2022-12-29T02:04:57.914Z,935.63
2022-12-29T02:05:56.207Z,935.59
2022-12-29T02:06:56.464Z,935.61
2022-12-29T02:07:57.398Z,935.68
2022-12-29T02:08:58.400Z,935.66
2022-12-29T02:09:58.943Z,935.67
2022-12-29T02:10:59.905Z,935.62
2022-12-29T02:12:00.318Z,935.62
2022-12-29T02:13:01.333Z,935.59
2022-12-29T02:14:03.829Z,935.57
2022-12-29T02:15:02.650Z,935.55
2022-12-29T02:16:03.545Z,935.5
2022-12-29T02:17:03.855Z,935.47
2022-12-29T02:18:04.769Z,935.49
2022-12-29T02:19:05.066Z,935.49
2022-12-29T02:20:05.734Z,935.5
2022-12-29T02:21:06.224Z,935.52
2022-12-29T02:22:07.133Z,935.57
2022-12-29T02:23:07.602Z,935.53
2022-12-29T02:24:08.662Z,935.52
2022-12-29T02:25:09.240Z,935.54
2022-12-29T02:26:09.857Z,935.54
2022-12-29T02:27:10.506Z,935.49
2022-12-29T02:28:11.529Z,935.54
2022-12-29T02:29:12.318Z,935.54
2022-12-29T02:30:13.166Z,935.57
2022-12-29T02:31:13.875Z,935.54
2022-12-29T02:32:14.788Z,935.56
2022-12-29T02:33:15.472Z,935.57
2022-12-29T02:34:15.942Z,935.53
2022-12-29T02:35:17.030Z,935.57
2022-12-29T02:36:18.037Z,935.53
2022-12-29T02:37:18.552Z,935.52
2022-12-29T02:38:19.486Z,935.53
2022-12-29T02:39:20.090Z,935.56
2022-12-29T02:40:21.017Z,935.47
2022-12-29T02:41:21.945Z,935.53
2022-12-29T02:42:22.417Z,935.56
2022-12-29T02:43:23.242Z,935.57
2022-12-29T02:44:23.527Z,935.57
2022-12-29T02:45:23.776Z,935.51
2022-12-29T02:46:24.666Z,935.52
2022-12-29T02:47:24.755Z,935.48
2022-12-29T02:48:25.023Z,935.45
2022-12-29T02:49:25.986Z,935.49
2022-12-29T02:50:26.203Z,935.5
2022-12-29T02:51:26.697Z,935.51
2022-12-29T02:52:27.754Z,935.53
2022-12-29T02:53:28.267Z,935.5
2022-12-29T02:54:28.544Z,935.52
2022-12-29T02:55:29.256Z,935.59
2022-12-29T02:56:30.188Z,935.56
2022-12-29T02:57:30.458Z,935.61
2022-12-29T02:58:30.984Z,935.6
2022-12-29T02:59:31.624Z,935.52
2022-12-29T03:00:31.848Z,935.49
2022-12-29T03:01:33.047Z,935.5
2022-12-29T03:02:33.270Z,935.46
2022-12-29T03:03:33.935Z,935.49
2022-12-29T03:04:34.085Z,935.44
2022-12-29T03:05:35.033Z,935.44
2022-12-29T03:06:35.982Z,935.41
2022-12-29T03:07:36.631Z,935.36
2022-12-29T03:08:37.553Z,935.39
2022-12-29T03:09:38.577Z,935.38
2022-12-29T03:10:38.834Z,935.41
2022-12-29T03:11:39.523Z,935.44
2022-12-29T03:12:39.808Z,935.41
2022-12-29T03:13:40.485Z,935.36
2022-12-29T03:14:41.435Z,935.33
2022-12-29T03:15:42.366Z,935.31
2022-12-29T03:16:42.934Z,935.35
2022-12-29T03:17:43.492Z,935.4
2022-12-29T03:18:44.479Z,935.39
2022-12-29T03:19:44.692Z,935.38
2022-12-29T03:20:44.927Z,935.38
2022-12-29T03:21:45.176Z,935.36
2022-12-29T03:22:46.136Z,935.35
2022-12-29T03:23:46.377Z,935.35
2022-12-29T03:24:46.997Z,935.3
2022-12-29T03:25:47.215Z,935.27
2022-12-29T03:26:47.889Z,935.3
2022-12-29T03:27:48.144Z,935.32
2022-12-29T03:28:48.405Z,935.33
2022-12-29T03:29:49.367Z,935.28
2022-12-29T03:30:50.369Z,935.21
2022-12-29T03:31:51.230Z,935.28
2022-12-29T03:32:51.997Z,935.27
2022-12-29T03:33:52.955Z,935.22
2022-12-29T03:34:53.900Z,935.25
2022-12-29T03:35:54.142Z,935.2
2022-12-29T03:36:55.093Z,935.24
2022-12-29T03:37:55.194Z,935.25
2022-12-29T03:38:55.454Z,935.26
2022-12-29T03:39:56.068Z,935.26
2022-12-29T03:40:56.652Z,935.25
2022-12-29T03:41:56.882Z,935.29
2022-12-29T03:42:57.219Z,935.34
2022-12-29T03:43:57.557Z,935.3
2022-12-29T03:44:58.012Z,935.22
2022-12-29T03:45:58.965Z,935.27
2022-12-29T03:46:59.189Z,935.33
2022-12-29T03:48:00.249Z,935.31
2022-12-29T03:49:01.163Z,935.3
2022-12-29T03:50:02.009Z,935.32
2022-12-29T03:51:02.301Z,935.36
2022-12-29T03:52:03.223Z,935.3
2022-12-29T03:53:03.712Z,935.3
2022-12-29T03:54:03.961Z,935.34
2022-12-29T03:55:04.718Z,935.33
2022-12-29T03:56:05.363Z,935.28
2022-12-29T03:57:05.788Z,935.33
2022-12-29T03:58:06.031Z,935.31
2022-12-29T03:59:06.906Z,935.32
2022-12-29T04:00:07.594Z,935.31
2022-12-29T04:01:08.169Z,935.31
2022-12-29T04:02:08.399Z,935.29
2022-12-29T04:03:09.394Z,935.24
2022-12-29T04:04:10.060Z,935.27
2022-12-29T04:05:10.661Z,935.24
2022-12-29T04:06:10.906Z,935.25
2022-12-29T04:07:11.135Z,935.26
2022-12-29T04:08:12.153Z,935.27
2022-12-29T04:09:12.819Z,935.19
2022-12-29T04:10:13.428Z,935.2
2022-12-29T04:11:14.006Z,935.23
2022-12-29T04:12:14.183Z,935.21
2022-12-29T04:13:14.287Z,935.18
2022-12-29T04:14:14.486Z,935.17
2022-12-29T04:15:14.735Z,935.25
2022-12-29T04:16:14.996Z,935.24
2022-12-29T04:17:15.563Z,935.25
2022-12-29T04:18:15.792Z,935.27
2022-12-29T04:19:16.760Z,935.24
2022-12-29T04:20:17.420Z,935.18
2022-12-29T04:21:18.284Z,935.15
2022-12-29T04:22:18.867Z,935.19
2022-12-29T04:23:19.930Z,935.18
2022-12-29T04:24:20.839Z,935.2
2022-12-29T04:25:21.249Z,935.19
2022-12-29T04:26:21.501Z,935.21
2022-12-29T04:27:22.457Z,935.26
2022-12-29T04:28:22.673Z,935.23
2022-12-29T04:29:23.058Z,935.25
2022-12-29T04:30:23.933Z,935.25
2022-12-29T04:31:24.906Z,935.21
2022-12-29T04:32:25.485Z,935.23
2022-12-29T04:33:25.633Z,935.16
2022-12-29T04:34:25.895Z,935.19
2022-12-29T04:35:26.537Z,935.15
2022-12-29T04:36:30.023Z,935.03
2022-12-29T04:37:28.308Z,935.05
2022-12-29T04:38:28.539Z,935.04
2022-12-29T04:39:28.759Z,935.09
2022-12-29T04:40:29.135Z,935
2022-12-29T04:41:29.834Z,935
2022-12-29T04:42:30.037Z,934.99
2022-12-29T04:43:30.436Z,935
2022-12-29T04:44:30.731Z,934.98
2022-12-29T04:45:31.700Z,934.93
2022-12-29T04:46:32.414Z,934.95
2022-12-29T04:47:33.354Z,934.94
2022-12-29T04:48:33.727Z,934.84
2022-12-29T04:49:34.591Z,934.8
2022-12-29T04:50:34.814Z,934.8
2022-12-29T04:51:35.034Z,934.86
2022-12-29T04:52:35.237Z,934.85
2022-12-29T04:53:35.569Z,934.85
2022-12-29T04:54:36.515Z,934.83
2022-12-29T04:55:36.880Z,934.9
2022-12-29T04:56:37.380Z,934.92
2022-12-29T04:57:38.303Z,934.95
2022-12-29T04:58:38.533Z,934.93
2022-12-29T04:59:39.065Z,934.96
2022-12-29T05:00:39.563Z,934.94
2022-12-29T05:01:40.678Z,935.02
2022-12-29T05:02:41.407Z,934.98
2022-12-29T05:03:41.664Z,934.9
2022-12-29T05:04:42.420Z,934.93
2022-12-29T05:05:42.916Z,934.98
2022-12-29T05:06:43.613Z,934.96
2022-12-29T05:07:44.548Z,934.89
2022-12-29T05:08:45.251Z,934.85
2022-12-29T05:09:46.187Z,934.9
2022-12-29T05:10:47.277Z,934.89
2022-12-29T05:11:47.527Z,934.97
2022-12-29T05:12:47.748Z,934.97
2022-12-29T05:13:48.469Z,934.95
2022-12-29T05:14:49.400Z,934.84
2022-12-29T05:15:49.702Z,934.8
2022-12-29T05:16:50.006Z,934.88
2022-12-29T05:17:50.964Z,934.79
2022-12-29T05:18:51.580Z,934.74
2022-12-29T05:19:51.796Z,934.66
2022-12-29T05:20:52.759Z,934.68
2022-12-29T05:21:53.689Z,934.68
2022-12-29T05:22:54.183Z,934.72
2022-12-29T05:23:54.879Z,934.67
2022-12-29T05:24:55.574Z,934.71
2022-12-29T05:25:56.642Z,934.76
2022-12-29T05:26:57.622Z,934.75
2022-12-29T05:27:58.158Z,934.83
2022-12-29T05:28:58.705Z,934.74
2022-12-29T05:29:59.003Z,934.73
2022-12-29T05:30:59.629Z,934.79
2022-12-29T05:32:00.609Z,934.77
2022-12-29T05:33:01.535Z,934.67
2022-12-29T05:34:02.521Z,934.71
2022-12-29T05:35:03.395Z,934.64
2022-12-29T05:36:03.697Z,934.68
2022-12-29T05:37:04.632Z,934.69
2022-12-29T05:38:05.160Z,934.66
2022-12-29T05:39:05.971Z,934.65
2022-12-29T05:40:07.061Z,934.67
2022-12-29T05:41:07.716Z,934.7
2022-12-29T05:42:08.206Z,934.7
2022-12-29T05:43:09.099Z,934.79
2022-12-29T05:44:09.514Z,934.81
2022-12-29T05:45:09.741Z,934.81
2022-12-29T05:46:10.478Z,934.76
2022-12-29T05:47:11.456Z,934.75
2022-12-29T05:48:11.839Z,934.76
2022-12-29T05:49:12.129Z,934.72
2022-12-29T05:50:13.130Z,934.73
2022-12-29T05:51:13.925Z,934.69
2022-12-29T05:52:14.638Z,934.69
2022-12-29T05:53:15.566Z,934.72
2022-12-29T05:54:16.611Z,934.74
2022-12-29T05:55:17.253Z,934.82
2022-12-29T05:56:18.266Z,934.63
2022-12-29T05:57:18.492Z,934.58
2022-12-29T05:58:19.427Z,934.57
2022-12-29T05:59:20.342Z,934.67
2022-12-29T06:00:20.570Z,934.58
2022-12-29T06:01:20.860Z,934.55
2022-12-29T06:02:21.433Z,934.58
2022-12-29T06:03:21.889Z,934.67
2022-12-29T06:04:22.593Z,934.51
2022-12-29T06:05:23.499Z,934.78
2022-12-29T06:06:23.693Z,934.54
2022-12-29T06:07:23.843Z,934.47
2022-12-29T06:08:24.356Z,934.56
2022-12-29T06:09:24.571Z,934.5
2022-12-29T06:10:24.944Z,934.48
2022-12-29T06:11:25.566Z,934.48
2022-12-29T06:12:26.211Z,934.48
2022-12-29T06:13:26.655Z,934.49
2022-12-29T06:14:27.091Z,934.54
2022-12-29T06:15:27.725Z,934.46
2022-12-29T06:16:28.096Z,934.51
2022-12-29T06:17:28.605Z,934.41
2022-12-29T06:18:29.110Z,934.4
2022-12-29T06:19:29.345Z,934.41
2022-12-29T06:20:30.315Z,934.35
2022-12-29T06:21:31.231Z,934.37
2022-12-29T06:22:32.255Z,934.29
2022-12-29T06:23:33.211Z,934.29
2022-12-29T06:24:34.013Z,934.29
2022-12-29T06:25:34.969Z,934.21
2022-12-29T06:26:35.344Z,934.18
2022-12-29T06:27:35.839Z,934.16
2022-12-29T06:28:36.067Z,934.15
2022-12-29T06:29:36.441Z,934.11
2022-12-29T06:30:36.671Z,934.07
2022-12-29T06:31:36.974Z,934.09
2022-12-29T06:32:37.817Z,934.09
2022-12-29T06:33:38.764Z,934.11
2022-12-29T06:34:39.365Z,934.18
2022-12-29T06:35:39.493Z,934.08
2022-12-29T06:36:40.161Z,934.07
2022-12-29T06:37:40.839Z,934.14
2022-12-29T06:38:40.965Z,934.11
2022-12-29T06:39:41.459Z,934.16
2022-12-29T06:40:41.713Z,934.17
2022-12-29T06:41:42.007Z,934.18
2022-12-29T06:42:42.937Z,934.19
2022-12-29T06:43:43.862Z,934.25
2022-12-29T06:44:44.626Z,934.26
2022-12-29T06:45:45.213Z,934.23
2022-12-29T06:46:46.131Z,934.28
2022-12-29T06:47:46.340Z,934.29
2022-12-29T06:48:46.610Z,934.27
2022-12-29T06:49:46.841Z,934.31
2022-12-29T06:50:47.397Z,934.38
2022-12-29T06:51:48.339Z,934.46
2022-12-29T06:52:49.015Z,934.42
2022-12-29T06:53:49.223Z,934.38
2022-12-29T06:54:50.044Z,934.4
2022-12-29T06:55:50.671Z,934.47
2022-12-29T06:56:51.278Z,934.44
2022-12-29T06:57:51.490Z,934.42
2022-12-29T06:58:52.433Z,934.4
2022-12-29T06:59:53.001Z,934.44
2022-12-29T07:00:53.258Z,934.44
2022-12-29T07:01:53.980Z,934.46
2022-12-29T07:02:54.400Z,934.47
2022-12-29T07:03:55.348Z,934.51
2022-12-29T07:04:56.329Z,934.58
2022-12-29T07:05:56.560Z,934.55
2022-12-29T07:06:57.078Z,934.56
2022-12-29T07:07:57.681Z,934.63
2022-12-29T07:08:57.779Z,934.6
2022-12-29T07:09:58.414Z,934.67
2022-12-29T07:10:59.115Z,934.67
2022-12-29T07:11:59.896Z,934.66
2022-12-29T07:13:00.718Z,934.68
2022-12-29T07:14:04.429Z,934.72
2022-12-29T07:15:01.258Z,934.76
2022-12-29T07:16:01.485Z,934.77
2022-12-29T07:17:02.355Z,934.82
2022-12-29T07:18:02.571Z,934.82
2022-12-29T07:19:03.093Z,934.9
2022-12-29T07:20:04.025Z,934.87
2022-12-29T07:21:05.074Z,934.88
2022-12-29T07:22:05.986Z,934.95
2022-12-29T07:23:07.078Z,934.93
2022-12-29T07:24:08.159Z,934.98
2022-12-29T07:25:08.699Z,935
2022-12-29T07:26:09.431Z,935
2022-12-29T07:27:09.947Z,934.96
2022-12-29T07:28:10.624Z,935.05
2022-12-29T07:29:11.099Z,935.05
2022-12-29T07:30:11.855Z,935
2022-12-29T07:31:12.403Z,934.99
2022-12-29T07:32:12.793Z,934.99
2022-12-29T07:33:13.650Z,935.02
2022-12-29T07:34:14.295Z,935.04
2022-12-29T07:35:15.021Z,935.04
2022-12-29T07:36:15.304Z,935.04
2022-12-29T07:37:16.138Z,935.06
2022-12-29T07:38:16.311Z,935.07
2022-12-29T07:39:16.764Z,935.07
2022-12-29T07:40:17.310Z,935.1
2022-12-29T07:41:17.543Z,935.1
2022-12-29T07:42:17.960Z,935.11
2022-12-29T07:43:18.344Z,935.21
2022-12-29T07:44:19.267Z,935.2
2022-12-29T07:45:19.650Z,935.23
2022-12-29T07:46:54.751Z,935.25
2022-12-29T07:47:21.471Z,935.28
2022-12-29T07:48:22.114Z,935.34
2022-12-29T07:49:23.079Z,935.36
2022-12-29T07:50:24.041Z,935.35
2022-12-29T07:51:24.281Z,935.36
2022-12-29T07:52:24.567Z,935.4
2022-12-29T07:53:25.066Z,935.46
2022-12-29T07:54:25.272Z,935.5
2022-12-29T07:55:25.877Z,935.43
2022-12-29T07:56:26.373Z,935.44
2022-12-29T07:57:31.692Z,935.48
2022-12-29T07:58:27.637Z,935.46
2022-12-29T07:59:28.420Z,935.44
2022-12-29T08:00:28.864Z,935.47
2022-12-29T08:01:29.611Z,935.53
2022-12-29T08:02:29.773Z,935.49
2022-12-29T08:03:30.174Z,935.5
2022-12-29T08:04:30.981Z,935.62
2022-12-29T08:05:32.039Z,935.64
2022-12-29T08:06:32.293Z,935.57
2022-12-29T08:07:32.958Z,935.56
2022-12-29T08:08:33.930Z,935.52
2022-12-29T08:09:34.912Z,935.54
2022-12-29T08:10:35.598Z,935.56
2022-12-29T08:11:35.989Z,935.51
2022-12-29T08:12:36.322Z,935.56
2022-12-29T08:13:37.266Z,935.59
2022-12-29T08:14:38.297Z,935.56
2022-12-29T08:15:38.617Z,935.52
2022-12-29T08:16:39.180Z,935.59
2022-12-29T08:17:40.123Z,935.6
2022-12-29T08:18:41.074Z,935.6
2022-12-29T08:19:42.015Z,935.63
2022-12-29T08:20:42.698Z,935.61
2022-12-29T08:21:42.924Z,935.65
2022-12-29T08:22:43.430Z,935.61
2022-12-29T08:23:43.934Z,935.64
2022-12-29T08:24:44.828Z,935.64
2022-12-29T08:25:45.204Z,935.59
2022-12-29T08:26:46.135Z,935.64
2022-12-29T08:27:46.751Z,935.63
2022-12-29T08:28:47.687Z,935.61
2022-12-29T08:29:48.365Z,935.64
2022-12-29T08:30:48.797Z,935.63
2022-12-29T08:31:49.430Z,935.67
2022-12-29T08:32:49.674Z,935.72
2022-12-29T08:33:50.314Z,935.74
2022-12-29T08:34:50.965Z,935.72
2022-12-29T08:35:51.418Z,935.76
2022-12-29T08:36:51.668Z,935.79
2022-12-29T08:37:52.325Z,935.8
2022-12-29T08:38:53.064Z,935.82
2022-12-29T08:39:53.709Z,935.77
2022-12-29T08:40:53.961Z,935.8
2022-12-29T08:41:54.479Z,935.86
2022-12-29T08:42:55.116Z,935.83
2022-12-29T08:43:55.808Z,935.81
2022-12-29T08:44:56.372Z,935.82
2022-12-29T08:45:57.147Z,935.86
2022-12-29T08:46:57.268Z,935.87
2022-12-29T08:47:57.652Z,935.88
2022-12-29T08:48:58.147Z,935.89
2022-12-29T08:49:58.346Z,935.91
2022-12-29T08:50:59.039Z,935.88
2022-12-29T08:51:59.742Z,935.92
2022-12-29T08:52:59.969Z,935.9
2022-12-29T08:54:00.199Z,935.88
2022-12-29T08:55:00.438Z,935.93
2022-12-29T08:56:04.927Z,935.91
2022-12-29T08:57:02.053Z,935.93
2022-12-29T08:58:02.694Z,935.9
2022-12-29T08:59:03.071Z,935.93
2022-12-29T09:00:03.583Z,935.95
2022-12-29T09:01:03.795Z,935.93
2022-12-29T09:02:04.512Z,935.94
2022-12-29T09:03:05.303Z,935.94
2022-12-29T09:04:16.860Z,935.93
2022-12-29T09:05:15.669Z,935.97
2022-12-29T09:06:16.317Z,935.93
2022-12-29T09:07:16.516Z,935.97
2022-12-29T09:08:20.913Z,936.02
2022-12-29T09:09:18.455Z,936.08
2022-12-29T09:10:18.809Z,936.03
2022-12-29T09:11:19.632Z,936.08
2022-12-29T09:12:20.296Z,936.05
2022-12-29T09:13:21.037Z,936.12
2022-12-29T09:14:21.278Z,936.09
2022-12-29T09:15:22.215Z,936.09
2022-12-29T09:16:22.366Z,936.11
2022-12-29T09:17:23.117Z,936.11
2022-12-29T09:18:23.497Z,936.04
2022-12-29T09:19:23.662Z,936.12
2022-12-29T09:20:24.343Z,936.1
2022-12-29T09:21:24.895Z,936.11
2022-12-29T09:22:25.951Z,936.19
2022-12-29T09:23:26.966Z,936.17
2022-12-29T09:24:27.651Z,936.11
2022-12-29T09:25:28.589Z,936.14
2022-12-29T09:26:29.689Z,936.1
2022-12-29T09:27:30.735Z,936.09
2022-12-29T09:28:31.060Z,936.1
2022-12-29T09:29:31.556Z,936.11
2022-12-29T09:30:32.050Z,936.15
2022-12-29T09:31:32.653Z,936.19
2022-12-29T09:32:33.913Z,936.19
2022-12-29T09:33:33.384Z,936.21
2022-12-29T09:34:34.044Z,936.15
2022-12-29T09:35:35.087Z,936.12
2022-12-29T09:36:36.078Z,936.11
2022-12-29T09:37:36.622Z,936.03
2022-12-29T09:38:36.899Z,936.02
2022-12-29T09:39:37.154Z,936.03
2022-12-29T09:40:37.536Z,936.02
2022-12-29T09:41:38.473Z,936
2022-12-29T09:42:38.982Z,936.05
2022-12-29T09:43:39.335Z,936.09
2022-12-29T09:44:39.996Z,936.07
2022-12-29T09:45:40.997Z,936.09
2022-12-29T09:46:42.109Z,936.08
2022-12-29T09:47:42.999Z,936.04
2022-12-29T09:48:43.939Z,936.11
2022-12-29T09:49:44.169Z,936.07
2022-12-29T09:50:45.137Z,936.07
2022-12-29T09:51:46.193Z,936.06
2022-12-29T09:52:46.735Z,936
2022-12-29T09:53:47.226Z,935.99
2022-12-29T09:54:53.815Z,935.97
2022-12-29T09:55:49.139Z,935.99
2022-12-29T09:56:49.476Z,935.95
2022-12-29T09:57:49.742Z,935.96
2022-12-29T09:58:50.822Z,935.92
2022-12-29T09:59:51.764Z,935.89
2022-12-29T10:00:55.275Z,935.93
2022-12-29T10:01:52.725Z,935.93
2022-12-29T10:02:52.819Z,935.91
2022-12-29T10:03:53.524Z,935.93
2022-12-29T10:04:54.489Z,936
2022-12-29T10:05:55.489Z,935.98
2022-12-29T10:07:31.246Z,936.01
2022-12-29T10:08:31.580Z,935.96
2022-12-29T10:09:31.825Z,935.96
2022-12-29T10:10:32.064Z,935.97
2022-12-29T10:11:32.314Z,935.98
2022-12-29T10:12:33.020Z,935.99
2022-12-29T10:13:33.682Z,935.98
2022-12-29T10:14:34.008Z,936
2022-12-29T10:15:34.441Z,935.97
2022-12-29T10:16:35.185Z,935.92
2022-12-29T10:17:35.277Z,935.93
2022-12-29T10:18:36.268Z,935.93
2022-12-29T10:19:37.342Z,935.95
2022-12-29T10:20:37.576Z,935.94
2022-12-29T10:21:37.831Z,935.99
2022-12-29T10:22:38.044Z,935.97
2022-12-29T10:23:38.745Z,935.99
2022-12-29T10:24:39.782Z,935.98
2022-12-29T10:25:40.299Z,935.96
2022-12-29T10:26:40.825Z,935.97
2022-12-29T10:27:41.912Z,936
2022-12-29T10:28:42.892Z,935.96
2022-12-29T10:29:43.621Z,935.94
2022-12-29T10:30:43.858Z,935.92
2022-12-29T10:31:44.386Z,935.91
2022-12-29T10:32:45.319Z,935.86
2022-12-29T10:33:45.826Z,935.8
2022-12-29T10:34:46.046Z,935.79
2022-12-29T10:35:46.970Z,935.81
2022-12-29T10:36:47.198Z,935.7
2022-12-29T10:37:48.025Z,935.65
2022-12-29T10:38:48.267Z,935.55
2022-12-29T10:39:48.483Z,935.53
2022-12-29T10:40:49.414Z,935.46
2022-12-29T10:41:49.679Z,935.46
2022-12-29T10:42:49.954Z,935.45
2022-12-29T10:43:50.272Z,935.42
2022-12-29T10:44:50.880Z,935.41
2022-12-29T10:45:51.878Z,935.39
2022-12-29T10:46:52.520Z,935.31
2022-12-29T10:47:53.594Z,935.35
2022-12-29T10:48:54.145Z,935.38
2022-12-29T10:49:54.699Z,935.37
2022-12-29T10:51:00.032Z,935.35
2022-12-29T10:51:56.681Z,935.36
2022-12-29T10:52:56.912Z,935.34
2022-12-29T10:53:57.973Z,935.27
2022-12-29T10:54:58.952Z,935.24
2022-12-29T10:55:59.229Z,935.24
2022-12-29T10:56:59.459Z,935.29
2022-12-29T10:58:00.223Z,935.25
2022-12-29T10:59:00.745Z,935.22
2022-12-29T11:00:01.332Z,935.26
2022-12-29T11:01:01.750Z,935.2
2022-12-29T11:02:02.726Z,935.24
2022-12-29T11:03:03.122Z,935.25
2022-12-29T11:04:03.581Z,935.23
2022-12-29T11:05:04.087Z,935.21
2022-12-29T11:06:04.651Z,935.2
2022-12-29T11:07:05.591Z,935.2
2022-12-29T11:08:06.361Z,935.22
2022-12-29T11:09:06.629Z,935.21
2022-12-29T11:10:07.205Z,935.15
2022-12-29T11:11:07.857Z,935.19
2022-12-29T11:12:08.077Z,935.25
2022-12-29T11:13:08.610Z,935.29
2022-12-29T11:14:09.541Z,935.3
2022-12-29T11:15:09.867Z,935.29
2022-12-29T11:16:10.447Z,935.3
2022-12-29T11:17:11.386Z,935.23
2022-12-29T11:18:12.109Z,935.19
2022-12-29T11:19:12.344Z,935.17
2022-12-29T11:20:12.557Z,935.12
2022-12-29T11:21:13.506Z,935.18
2022-12-29T11:22:14.431Z,935.17
2022-12-29T11:23:15.391Z,935.1
2022-12-29T11:24:15.643Z,935.09
2022-12-29T11:25:16.599Z,935.07
2022-12-29T11:26:17.112Z,935.06
2022-12-29T11:27:17.211Z,935.03
2022-12-29T11:28:17.611Z,935.13
2022-12-29T11:29:18.116Z,935.02
2022-12-29T11:30:18.734Z,934.95
2022-12-29T11:31:19.712Z,934.92
2022-12-29T11:32:24.230Z,934.89
2022-12-29T11:33:20.813Z,934.88
2022-12-29T11:34:21.044Z,934.89
2022-12-29T11:35:21.586Z,934.73
2022-12-29T11:36:21.866Z,934.73
2022-12-29T11:37:22.839Z,934.82
2022-12-29T11:38:23.601Z,934.75
2022-12-29T11:39:24.144Z,934.76
2022-12-29T11:40:24.509Z,934.78
2022-12-29T11:41:25.438Z,934.77
2022-12-29T11:42:26.095Z,934.69
2022-12-29T11:43:26.328Z,934.7
2022-12-29T11:44:27.240Z,934.66
2022-12-29T11:45:27.950Z,934.68
2022-12-29T11:46:28.787Z,934.69
2022-12-29T11:47:28.986Z,934.68
2022-12-29T11:48:29.689Z,934.66
2022-12-29T11:49:29.924Z,934.64
2022-12-29T11:50:30.152Z,934.66
2022-12-29T11:51:30.647Z,934.71
2022-12-29T11:52:31.607Z,934.63
2022-12-29T11:53:31.966Z,934.68
2022-12-29T11:54:32.222Z,934.66
2022-12-29T11:55:33.168Z,934.59
2022-12-29T11:56:38.407Z,934.58
2022-12-29T11:57:34.346Z,934.6
2022-12-29T11:58:35.126Z,934.64
2022-12-29T11:59:35.640Z,934.61
2022-12-29T12:00:35.964Z,934.62
2022-12-29T12:01:36.541Z,934.61
2022-12-29T12:02:42.388Z,934.59
2022-12-29T12:03:37.694Z,934.63
2022-12-29T12:04:38.395Z,934.63
2022-12-29T12:05:39.339Z,934.58
2022-12-29T12:06:40.308Z,934.62
2022-12-29T12:07:40.427Z,934.57
2022-12-29T12:08:41.224Z,934.62
2022-12-29T12:09:41.462Z,934.61
2022-12-29T12:10:42.502Z,934.61
2022-12-29T12:11:43.487Z,934.58
2022-12-29T12:12:44.164Z,934.6
2022-12-29T12:13:44.894Z,934.6
2022-12-29T12:14:45.148Z,934.59
2022-12-29T12:15:48.299Z,934.57
2022-12-29T12:16:46.286Z,934.6
2022-12-29T12:17:46.762Z,934.61
2022-12-29T12:18:47.786Z,934.55
2022-12-29T12:19:48.731Z,934.6
2022-12-29T12:20:49.001Z,934.59
2022-12-29T12:21:49.499Z,934.57
2022-12-29T12:22:50.432Z,934.61
2022-12-29T12:23:50.716Z,934.6
2022-12-29T12:24:51.253Z,934.63
2022-12-29T12:25:51.510Z,934.64
2022-12-29T12:26:52.468Z,934.62
2022-12-29T12:27:52.715Z,934.65
2022-12-29T12:28:53.771Z,934.68
2022-12-29T12:29:54.417Z,934.68
2022-12-29T12:30:55.117Z,934.64
2022-12-29T12:31:55.910Z,934.62
2022-12-29T12:32:56.184Z,934.65
2022-12-29T12:33:56.897Z,934.68
2022-12-29T12:34:57.926Z,934.63
2022-12-29T12:35:58.659Z,934.7
2022-12-29T12:36:58.881Z,934.68
2022-12-29T12:37:59.845Z,934.8
2022-12-29T12:38:59.966Z,934.73
2022-12-29T12:40:00.689Z,934.73
2022-12-29T12:41:01.363Z,934.7